createdAt,value
2017-08-01T00:00:10.227Z,21.40
2017-08-01T00:02:39.153Z,21.50
2017-08-01T00:05:07.304Z,21.40
2017-08-01T00:07:35.475Z,21.50
2017-08-01T00:10:03.630Z,21.50
2017-08-01T00:12:31.766Z,21.50
2017-08-01T00:14:59.943Z,21.50
2017-08-01T00:17:28.086Z,21.50
2017-08-01T00:19:56.376Z,21.50
2017-08-01T00:22:24.536Z,21.50
2017-08-01T00:24:52.685Z,21.50
2017-08-01T00:27:20.855Z,21.50
2017-08-01T00:29:48.992Z,21.50
2017-08-01T00:32:17.956Z,21.40
2017-08-01T00:34:46.090Z,21.40
2017-08-01T00:37:14.303Z,21.40
2017-08-01T00:39:42.480Z,21.40
2017-08-01T00:42:10.631Z,21.30
2017-08-01T00:44:38.807Z,21.30
2017-08-01T00:47:06.949Z,21.20
2017-08-01T00:49:36.010Z,21.20
2017-08-01T00:52:04.909Z,21.20
2017-08-01T00:54:33.054Z,21.10
2017-08-01T00:57:01.227Z,21.10
2017-08-01T00:59:30.151Z,20.90
2017-08-01T01:01:58.323Z,20.90
2017-08-01T01:04:26.452Z,20.90
2017-08-01T01:06:54.606Z,20.80
2017-08-01T01:09:22.738Z,20.70
2017-08-01T01:11:51.011Z,20.70
2017-08-01T01:14:19.154Z,20.60
2017-08-01T01:16:47.297Z,20.50
2017-08-01T01:19:15.458Z,20.50
2017-08-01T01:21:43.603Z,20.40
2017-08-01T01:24:11.882Z,20.30
2017-08-01T01:26:40.012Z,20.30
2017-08-01T01:29:08.140Z,20.30
2017-08-01T01:31:36.330Z,20.30
2017-08-01T01:34:04.478Z,20.30
2017-08-01T01:36:32.755Z,20.20
2017-08-01T01:39:00.912Z,20.20
2017-08-01T01:41:29.057Z,20.20
2017-08-01T01:43:57.227Z,20.10
2017-08-01T01:46:25.394Z,20.10
2017-08-01T01:48:53.678Z,20.00
2017-08-01T01:51:22.595Z,20.00
2017-08-01T01:53:50.747Z,19.90
2017-08-01T01:56:18.930Z,19.90
2017-08-01T01:58:47.087Z,19.90
2017-08-01T02:01:15.267Z,19.90
2017-08-01T02:03:43.431Z,19.80
2017-08-01T02:06:12.370Z,19.80
2017-08-01T02:08:40.514Z,19.80
2017-08-01T02:11:08.655Z,19.80
2017-08-01T02:13:37.598Z,19.70
2017-08-01T02:16:05.729Z,19.70
2017-08-01T02:18:33.919Z,19.70
2017-08-01T02:21:02.073Z,19.70
2017-08-01T02:23:30.214Z,19.70
2017-08-01T02:25:58.400Z,19.70
2017-08-01T02:28:26.538Z,19.60
2017-08-01T02:30:54.812Z,19.60
2017-08-01T02:33:22.941Z,19.60
2017-08-01T02:35:51.076Z,19.60
2017-08-01T02:38:19.229Z,19.60
2017-08-01T02:40:47.374Z,19.60
2017-08-01T02:43:15.587Z,19.60
2017-08-01T02:45:43.730Z,19.60
2017-08-01T02:48:11.889Z,19.70
2017-08-01T02:50:40.067Z,19.70
2017-08-01T02:53:08.207Z,19.70
2017-08-01T02:55:37.243Z,19.80
2017-08-01T02:58:06.150Z,19.70
2017-08-01T03:00:35.082Z,19.70
2017-08-01T03:03:04.110Z,19.70
2017-08-01T03:05:32.251Z,19.70
2017-08-01T03:08:00.423Z,19.80
2017-08-01T03:10:29.354Z,19.80
2017-08-01T03:12:57.540Z,19.80
2017-08-01T03:15:25.675Z,19.80
2017-08-01T03:17:53.823Z,19.70
2017-08-01T03:20:21.975Z,19.70
2017-08-01T03:22:50.886Z,19.60
2017-08-01T03:25:19.843Z,19.60
2017-08-01T03:27:47.973Z,19.50
2017-08-01T03:30:16.099Z,19.50
2017-08-01T03:32:44.271Z,19.40
2017-08-01T03:35:13.169Z,19.30
2017-08-01T03:37:42.107Z,19.30
2017-08-01T03:40:10.250Z,19.30
2017-08-01T03:42:38.436Z,19.30
2017-08-01T03:45:06.570Z,19.20
2017-08-01T03:47:35.463Z,19.20
2017-08-01T03:50:04.402Z,19.10
2017-08-01T03:52:32.551Z,19.10
2017-08-01T03:55:00.726Z,19.10
2017-08-01T03:57:28.870Z,19.00
2017-08-01T03:59:57.797Z,19.00
2017-08-01T04:02:25.990Z,19.00
2017-08-01T04:04:54.117Z,18.90
2017-08-01T04:07:22.297Z,19.00
2017-08-01T04:09:50.447Z,19.00
2017-08-01T04:12:18.709Z,19.10
2017-08-01T04:14:47.597Z,19.20
2017-08-01T04:17:15.729Z,19.20
2017-08-01T04:19:43.892Z,19.20
2017-08-01T04:22:12.032Z,19.30
2017-08-01T04:24:40.286Z,19.30
2017-08-01T04:27:08.435Z,19.30
2017-08-01T04:29:36.575Z,19.40
2017-08-01T04:32:04.734Z,19.40
2017-08-01T04:34:32.869Z,19.40
2017-08-01T04:37:01.809Z,19.40
2017-08-01T04:39:29.954Z,19.40
2017-08-01T04:41:58.127Z,19.50
2017-08-01T04:44:26.281Z,19.50
2017-08-01T04:46:55.175Z,19.60
2017-08-01T04:49:24.122Z,19.60
2017-08-01T04:51:52.311Z,19.60
2017-08-01T04:54:20.611Z,19.70
2017-08-01T04:56:49.514Z,19.80
2017-08-01T04:59:17.652Z,19.80
2017-08-01T05:01:45.807Z,19.90
2017-08-01T05:04:13.953Z,19.90
2017-08-01T05:06:42.139Z,20.00
2017-08-01T05:09:10.278Z,20.10
2017-08-01T05:11:38.415Z,20.20
2017-08-01T05:14:06.591Z,20.30
2017-08-01T05:16:35.496Z,20.50
2017-08-01T05:19:04.533Z,20.60
2017-08-01T05:21:32.677Z,20.60
2017-08-01T05:24:00.818Z,20.80
2017-08-01T05:26:29.756Z,21.10
2017-08-01T05:28:57.902Z,21.10
2017-08-01T05:31:26.057Z,21.30
2017-08-01T05:33:54.187Z,21.40
2017-08-01T05:36:22.309Z,21.60
2017-08-01T05:38:50.475Z,21.90
2017-08-01T05:41:18.608Z,22.10
2017-08-01T05:43:46.779Z,22.30
2017-08-01T05:46:14.935Z,22.60
2017-08-01T05:48:43.112Z,22.80
2017-08-01T05:51:11.273Z,23.00
2017-08-01T05:53:39.457Z,23.20
2017-08-01T05:56:07.604Z,23.30
2017-08-01T05:58:35.874Z,23.60
2017-08-01T06:01:04.007Z,23.80
2017-08-01T06:03:32.167Z,24.00
2017-08-01T06:06:00.322Z,24.20
2017-08-01T06:08:28.474Z,24.50
2017-08-01T06:10:56.741Z,24.70
2017-08-01T06:13:24.895Z,24.90
2017-08-01T06:15:53.027Z,25.10
2017-08-01T06:18:21.203Z,25.30
2017-08-01T06:20:49.338Z,25.50
2017-08-01T06:23:17.504Z,25.70
2017-08-01T06:25:45.632Z,26.00
2017-08-01T06:28:14.761Z,26.20
2017-08-01T06:30:42.903Z,26.40
2017-08-01T06:33:11.946Z,26.80
2017-08-01T06:35:40.095Z,26.80
2017-08-01T06:38:08.231Z,27.00
2017-08-01T06:40:37.172Z,27.40
2017-08-01T06:43:05.297Z,27.40
2017-08-01T06:45:34.328Z,27.80
2017-08-01T06:48:02.469Z,27.70
2017-08-01T06:50:30.615Z,28.00
2017-08-01T06:52:58.794Z,28.20
2017-08-01T06:55:27.712Z,28.60
2017-08-01T06:57:56.737Z,28.60
2017-08-01T07:00:24.876Z,28.80
2017-08-01T07:02:53.055Z,29.00
2017-08-01T07:05:21.293Z,29.10
2017-08-01T07:07:49.489Z,29.20
2017-08-01T07:10:18.467Z,29.40
2017-08-01T07:12:47.381Z,29.60
2017-08-01T07:15:15.537Z,29.50
2017-08-01T07:17:43.676Z,29.60
2017-08-01T07:20:11.817Z,29.70
2017-08-01T07:22:40.035Z,29.80
2017-08-01T07:25:08.182Z,29.90
2017-08-01T07:27:36.449Z,30.10
2017-08-01T07:30:04.587Z,30.10
2017-08-01T07:32:32.734Z,30.30
2017-08-01T07:35:00.922Z,30.40
2017-08-01T07:37:29.070Z,30.50
2017-08-01T07:39:58.029Z,30.80
2017-08-01T07:42:26.184Z,30.80
2017-08-01T07:44:54.332Z,31.00
2017-08-01T07:47:22.503Z,31.10
2017-08-01T07:49:50.637Z,31.30
2017-08-01T07:52:18.795Z,31.40
2017-08-01T07:54:46.971Z,31.50
2017-08-01T07:57:16.030Z,31.60
2017-08-01T07:59:44.166Z,31.80
2017-08-01T08:02:12.319Z,32.00
2017-08-01T08:04:41.267Z,32.30
2017-08-01T08:07:09.420Z,32.30
2017-08-01T08:09:37.638Z,32.40
2017-08-01T08:12:05.790Z,32.60
2017-08-01T08:14:33.927Z,32.70
2017-08-01T08:17:02.099Z,32.90
2017-08-01T08:19:30.229Z,33.00
2017-08-01T08:21:58.396Z,33.10
2017-08-01T08:24:26.532Z,33.20
2017-08-01T08:26:54.670Z,33.30
2017-08-01T08:29:22.871Z,33.30
2017-08-01T08:31:51.011Z,33.40
2017-08-01T08:34:19.165Z,33.40
2017-08-01T08:36:47.301Z,33.50
2017-08-01T08:39:15.491Z,33.50
2017-08-01T08:41:43.664Z,33.60
2017-08-01T08:44:11.805Z,33.60
2017-08-01T08:46:39.976Z,33.70
2017-08-01T08:49:08.121Z,33.70
2017-08-01T08:51:36.381Z,33.80
2017-08-01T08:54:05.285Z,33.80
2017-08-01T08:56:33.429Z,33.80
2017-08-01T08:59:01.585Z,33.90
2017-08-01T09:01:29.727Z,34.10
2017-08-01T09:03:57.901Z,34.20
2017-08-01T09:06:26.104Z,34.40
2017-08-01T09:08:54.243Z,34.60
2017-08-01T09:11:22.424Z,34.80
2017-08-01T09:13:50.558Z,35.00
2017-08-01T09:16:18.827Z,35.10
2017-08-01T09:18:47.741Z,35.30
2017-08-01T09:21:15.876Z,35.20
2017-08-01T09:23:44.810Z,35.40
2017-08-01T09:26:12.941Z,35.30
2017-08-01T09:28:41.968Z,35.40
2017-08-01T09:31:10.108Z,35.50
2017-08-01T09:33:38.289Z,35.30
2017-08-01T09:36:06.463Z,35.20
2017-08-01T09:38:34.593Z,35.20
2017-08-01T09:41:02.889Z,35.20
2017-08-01T09:43:31.798Z,35.20
2017-08-01T09:45:59.946Z,35.20
2017-08-01T09:48:28.870Z,35.10
2017-08-01T09:50:57.005Z,35.10
2017-08-01T09:53:25.196Z,35.10
2017-08-01T09:55:53.325Z,35.20
2017-08-01T09:58:21.471Z,35.10
2017-08-01T10:00:49.666Z,35.20
2017-08-01T10:03:17.815Z,35.20
2017-08-01T10:05:46.082Z,35.20
2017-08-01T10:08:14.222Z,35.10
2017-08-01T10:10:43.118Z,34.90
2017-08-01T10:13:11.292Z,34.90
2017-08-01T10:15:39.431Z,34.90
2017-08-01T10:18:07.689Z,34.90
2017-08-01T10:20:35.825Z,34.90
2017-08-01T10:23:03.956Z,34.80
2017-08-01T10:25:32.130Z,34.90
2017-08-01T10:28:01.035Z,34.70
2017-08-01T10:30:30.073Z,34.70
2017-08-01T10:32:58.211Z,34.70
2017-08-01T10:35:26.351Z,34.80
2017-08-01T10:37:55.141Z,34.80
2017-08-01T10:40:24.049Z,35.00
2017-08-01T10:42:52.226Z,34.90
2017-08-01T10:45:20.367Z,35.10
2017-08-01T10:47:48.498Z,35.20
2017-08-01T10:50:16.675Z,35.20
2017-08-01T10:52:44.805Z,35.30
2017-08-01T10:55:13.075Z,35.30
2017-08-01T10:57:41.207Z,35.20
2017-08-01T11:00:09.338Z,35.20
2017-08-01T11:02:37.522Z,35.10
2017-08-01T11:05:05.652Z,35.10
2017-08-01T11:07:34.696Z,35.00
2017-08-01T11:10:02.841Z,35.00
2017-08-01T11:12:30.987Z,34.90
2017-08-01T11:14:59.940Z,34.70
2017-08-01T11:17:28.078Z,34.70
2017-08-01T11:19:56.340Z,34.60
2017-08-01T11:22:24.474Z,34.50
2017-08-01T11:24:52.606Z,34.30
2017-08-01T11:27:20.762Z,34.20
2017-08-01T11:29:48.902Z,34.20
2017-08-01T11:32:17.844Z,34.00
2017-08-01T11:34:45.974Z,34.00
2017-08-01T11:37:14.942Z,33.90
2017-08-01T11:39:43.853Z,33.80
2017-08-01T11:42:12.878Z,33.70
2017-08-01T11:44:41.019Z,33.70
2017-08-01T11:47:09.927Z,33.50
2017-08-01T11:49:38.095Z,33.50
2017-08-01T11:52:06.217Z,33.50
2017-08-01T11:54:34.396Z,33.40
2017-08-01T11:57:02.544Z,33.40
2017-08-01T11:59:30.724Z,33.30
2017-08-01T12:01:58.867Z,33.30
2017-08-01T12:04:27.039Z,33.20
2017-08-01T12:06:55.169Z,33.20
2017-08-01T12:09:24.084Z,33.10
2017-08-01T12:11:52.259Z,33.10
2017-08-01T12:14:20.390Z,33.10
2017-08-01T12:16:48.657Z,33.10
2017-08-01T12:19:16.790Z,33.10
2017-08-01T12:21:44.934Z,33.10
2017-08-01T12:24:13.870Z,33.00
2017-08-01T12:26:42.013Z,33.00
2017-08-01T12:29:10.210Z,33.00
2017-08-01T12:31:38.353Z,33.00
2017-08-01T12:34:06.500Z,33.00
2017-08-01T12:36:35.432Z,33.00
2017-08-01T12:39:03.583Z,33.00
2017-08-01T12:41:31.759Z,33.00
2017-08-01T12:43:59.911Z,33.10
2017-08-01T12:46:28.890Z,33.10
2017-08-01T12:48:57.794Z,33.20
2017-08-01T12:51:26.703Z,33.20
2017-08-01T12:53:54.874Z,33.20
2017-08-01T12:56:23.014Z,33.20
2017-08-01T12:58:51.182Z,33.20
2017-08-01T13:01:20.084Z,33.20
2017-08-01T13:03:48.407Z,33.20
2017-08-01T13:06:16.545Z,33.20
2017-08-01T13:08:44.683Z,33.20
2017-08-01T13:11:12.858Z,33.20
2017-08-01T13:13:41.972Z,33.20
2017-08-01T13:16:11.017Z,33.30
2017-08-01T13:18:39.149Z,33.20
2017-08-01T13:21:07.293Z,33.20
2017-08-01T13:23:35.480Z,33.30
2017-08-01T13:26:04.377Z,33.30
2017-08-01T13:28:32.533Z,33.30
2017-08-01T13:31:01.435Z,33.30
2017-08-01T13:33:29.593Z,33.30
2017-08-01T13:35:57.727Z,33.30
2017-08-01T13:38:25.893Z,33.30
2017-08-01T13:40:54.013Z,33.30
2017-08-01T13:43:22.915Z,33.20
2017-08-01T13:45:51.071Z,33.20
2017-08-01T13:48:19.975Z,33.20
2017-08-01T13:50:48.138Z,33.20
2017-08-01T13:53:17.043Z,33.30
2017-08-01T13:55:45.220Z,33.20
2017-08-01T13:58:13.363Z,33.30
2017-08-01T14:00:41.554Z,33.20
2017-08-01T14:03:09.700Z,33.20
2017-08-01T14:05:38.616Z,33.20
2017-08-01T14:08:06.775Z,33.20
2017-08-01T14:10:35.680Z,33.30
2017-08-01T14:13:03.855Z,33.30
2017-08-01T14:15:31.983Z,33.30
2017-08-01T14:18:00.255Z,33.40
2017-08-01T14:20:28.395Z,33.50
2017-08-01T14:22:56.753Z,33.50
2017-08-01T14:25:24.921Z,33.50
2017-08-01T14:27:53.054Z,33.50
2017-08-01T14:30:22.021Z,33.50
2017-08-01T14:32:50.217Z,33.50
2017-08-01T14:35:18.398Z,33.50
2017-08-01T14:37:47.288Z,33.50
2017-08-01T14:40:16.191Z,33.50
2017-08-01T14:42:44.366Z,33.50
2017-08-01T14:45:12.512Z,33.50
2017-08-01T14:47:40.699Z,33.50
2017-08-01T14:50:09.124Z,33.50
2017-08-01T14:52:37.265Z,33.50
2017-08-01T14:55:05.421Z,33.50
2017-08-01T14:57:34.330Z,33.40
2017-08-01T15:00:02.491Z,33.40
2017-08-01T15:02:30.635Z,33.40
2017-08-01T15:04:59.582Z,33.50
2017-08-01T15:07:27.723Z,33.50
2017-08-01T15:09:55.915Z,33.50
2017-08-01T15:12:24.043Z,33.50
2017-08-01T15:14:52.954Z,33.40
2017-08-01T15:17:21.116Z,33.40
2017-08-01T15:19:49.283Z,33.40
2017-08-01T15:22:18.223Z,33.50
2017-08-01T15:24:46.366Z,33.50
2017-08-01T15:27:14.493Z,33.50
2017-08-01T15:29:42.663Z,33.40
2017-08-01T15:32:10.800Z,33.50
2017-08-01T15:34:38.970Z,33.40
2017-08-01T15:37:07.111Z,33.40
2017-08-01T15:39:35.273Z,33.40
2017-08-01T15:42:04.180Z,33.30
2017-08-01T15:44:32.358Z,33.30
2017-08-01T15:47:00.496Z,33.30
2017-08-01T15:49:28.631Z,33.30
2017-08-01T15:51:56.812Z,33.30
2017-08-01T15:54:24.952Z,33.30
2017-08-01T15:56:53.117Z,33.30
2017-08-01T15:59:21.255Z,33.30
2017-08-01T16:01:50.209Z,33.20
2017-08-01T16:04:18.342Z,33.20
2017-08-01T16:06:46.483Z,33.10
2017-08-01T16:09:14.642Z,33.10
2017-08-01T16:11:42.788Z,33.10
2017-08-01T16:14:10.958Z,33.00
2017-08-01T16:16:39.105Z,33.00
2017-08-01T16:19:07.295Z,33.00
2017-08-01T16:21:35.435Z,32.90
2017-08-01T16:24:04.325Z,32.80
2017-08-01T16:26:32.484Z,32.80
2017-08-01T16:29:00.617Z,32.80
2017-08-01T16:31:28.783Z,32.80
2017-08-01T16:33:56.927Z,32.80
2017-08-01T16:36:25.089Z,32.80
2017-08-01T16:38:53.216Z,32.80
2017-08-01T16:41:21.401Z,32.80
2017-08-01T16:43:50.297Z,32.70
2017-08-01T16:46:18.467Z,32.60
2017-08-01T16:48:47.366Z,32.50
2017-08-01T16:51:16.263Z,32.50
2017-08-01T16:53:45.194Z,32.50
2017-08-01T16:56:13.358Z,32.50
2017-08-01T16:58:41.539Z,32.50
2017-08-01T17:01:09.665Z,32.40
2017-08-01T17:03:38.606Z,32.40
2017-08-01T17:06:06.744Z,32.30
2017-08-01T17:08:35.594Z,32.30
2017-08-01T17:11:03.722Z,32.20
2017-08-01T17:13:31.867Z,32.10
2017-08-01T17:16:00.031Z,32.00
2017-08-01T17:18:28.180Z,31.80
2017-08-01T17:20:57.385Z,31.50
2017-08-01T17:23:25.553Z,31.40
2017-08-01T17:25:53.757Z,31.40
2017-08-01T17:28:21.905Z,31.20
2017-08-01T17:30:50.838Z,31.00
2017-08-01T17:33:18.989Z,31.00
2017-08-01T17:35:47.163Z,30.90
2017-08-01T17:38:15.302Z,30.90
2017-08-01T17:40:43.439Z,30.80
2017-08-01T17:43:11.597Z,30.70
2017-08-01T17:45:39.741Z,30.60
2017-08-01T17:48:07.915Z,30.40
2017-08-01T17:50:36.056Z,30.30
2017-08-01T17:53:04.239Z,30.20
2017-08-01T17:55:33.126Z,30.00
2017-08-01T17:58:01.259Z,29.90
2017-08-01T18:00:29.432Z,29.80
2017-08-01T18:02:57.567Z,29.70
2017-08-01T18:05:25.733Z,29.60
2017-08-01T18:07:53.878Z,29.50
2017-08-01T18:10:22.776Z,29.30
2017-08-01T18:12:51.702Z,29.30
2017-08-01T18:15:19.833Z,29.30
2017-08-01T18:17:48.765Z,29.20
2017-08-01T18:20:16.898Z,29.20
2017-08-01T18:22:45.200Z,29.10
2017-08-01T18:25:13.338Z,29.10
2017-08-01T18:27:42.258Z,29.00
2017-08-01T18:30:10.431Z,29.00
2017-08-01T18:32:38.564Z,28.80
2017-08-01T18:35:07.509Z,28.10
2017-08-01T18:37:35.647Z,28.10
2017-08-01T18:40:03.861Z,27.80
2017-08-01T18:42:31.986Z,27.40
2017-08-01T18:45:00.164Z,27.00
2017-08-01T18:47:28.313Z,26.70
2017-08-01T18:49:56.435Z,26.40
2017-08-01T18:52:24.605Z,26.10
2017-08-01T18:54:52.743Z,25.80
2017-08-01T18:57:21.669Z,25.40
2017-08-01T18:59:49.846Z,25.40
2017-08-01T19:02:18.025Z,25.10
2017-08-01T19:04:46.161Z,24.90
2017-08-01T19:07:14.343Z,24.80
2017-08-01T19:09:42.491Z,24.70
2017-08-01T19:12:11.410Z,24.40
2017-08-01T19:14:39.597Z,24.40
2017-08-01T19:17:07.789Z,24.30
2017-08-01T19:19:36.125Z,24.20
2017-08-01T19:22:04.359Z,24.10
2017-08-01T19:24:33.287Z,24.00
2017-08-01T19:27:01.478Z,23.90
2017-08-01T19:29:29.641Z,23.90
2017-08-01T19:31:57.878Z,23.80
2017-08-01T19:34:26.021Z,23.70
2017-08-01T19:36:54.152Z,23.60
2017-08-01T19:39:22.623Z,23.50
2017-08-01T19:41:51.202Z,23.50
2017-08-01T19:44:19.421Z,23.30
2017-08-01T19:46:47.672Z,23.20
2017-08-01T19:49:15.899Z,23.20
2017-08-01T19:51:44.301Z,23.00
2017-08-01T19:54:12.506Z,22.90
2017-08-01T19:56:40.919Z,22.80
2017-08-01T19:59:09.286Z,22.70
2017-08-01T20:01:38.300Z,22.50
2017-08-01T20:04:06.456Z,22.40
2017-08-01T20:06:35.428Z,22.30
2017-08-01T20:09:03.628Z,22.30
2017-08-01T20:11:32.587Z,22.10
2017-08-01T20:14:00.940Z,22.10
2017-08-01T20:16:29.146Z,22.00
2017-08-01T20:18:57.333Z,22.00
2017-08-01T20:21:25.482Z,22.00
2017-08-01T20:23:53.761Z,21.90
2017-08-01T20:26:21.898Z,21.90
2017-08-01T20:28:50.031Z,21.90
2017-08-01T20:31:18.958Z,21.80
2017-08-01T20:33:47.149Z,21.80
2017-08-01T20:36:15.368Z,21.80
2017-08-01T20:38:43.511Z,21.80
2017-08-01T20:41:11.646Z,21.70
2017-08-01T20:43:40.662Z,21.70
2017-08-01T20:46:08.790Z,21.70
2017-08-01T20:48:37.008Z,21.70
2017-08-01T20:51:05.159Z,21.70
2017-08-01T20:53:33.340Z,21.70
2017-08-01T20:56:01.479Z,21.70
2017-08-01T20:58:29.646Z,21.70
2017-08-01T21:00:57.810Z,21.70
2017-08-01T21:03:26.719Z,21.70
2017-08-01T21:05:54.899Z,21.70
2017-08-01T21:08:23.046Z,21.70
2017-08-01T21:10:51.315Z,21.70
2017-08-01T21:13:20.214Z,21.70
2017-08-01T21:15:48.661Z,21.70
2017-08-01T21:18:16.810Z,21.70
2017-08-01T21:20:44.958Z,21.70
2017-08-01T21:23:13.227Z,21.70
2017-08-01T21:25:41.371Z,21.70
2017-08-01T21:28:09.493Z,21.70
2017-08-01T21:30:37.663Z,21.70
2017-08-01T21:33:05.820Z,21.70
2017-08-01T21:35:33.997Z,21.80
2017-08-01T21:38:02.144Z,21.70
2017-08-01T21:40:30.302Z,21.70
2017-08-01T21:42:58.435Z,21.70
2017-08-01T21:45:26.609Z,21.70
2017-08-01T21:47:54.751Z,21.70
2017-08-01T21:50:22.905Z,21.70
2017-08-01T21:52:51.079Z,21.60
2017-08-01T21:55:19.233Z,21.60
2017-08-01T21:57:47.395Z,21.50
2017-08-01T22:00:16.306Z,21.50
2017-08-01T22:02:44.479Z,21.50
2017-08-01T22:05:12.623Z,21.50
2017-08-01T22:07:40.762Z,21.50
2017-08-01T22:10:09.750Z,21.50
2017-08-01T22:12:37.903Z,21.50
2017-08-01T22:15:06.074Z,21.50
2017-08-01T22:17:34.205Z,21.50
2017-08-01T22:20:03.119Z,21.50
2017-08-01T22:22:31.275Z,21.40
2017-08-01T22:24:59.407Z,21.50
2017-08-01T22:27:27.691Z,21.50
2017-08-01T22:29:55.834Z,21.50
2017-08-01T22:32:23.966Z,21.50
2017-08-01T22:34:52.125Z,21.40
2017-08-01T22:37:20.257Z,21.40
2017-08-01T22:39:48.535Z,21.50
2017-08-01T22:42:16.676Z,21.50
2017-08-01T22:44:44.815Z,21.50
2017-08-01T22:47:12.972Z,21.50
2017-08-01T22:49:41.106Z,21.50
2017-08-01T22:52:09.278Z,21.50
2017-08-01T22:54:37.409Z,21.40
2017-08-01T22:57:05.579Z,21.40
2017-08-01T22:59:33.710Z,21.40
2017-08-01T23:02:01.841Z,21.40
2017-08-01T23:04:30.020Z,21.40
2017-08-01T23:06:58.159Z,21.50
2017-08-01T23:09:27.083Z,21.50
2017-08-01T23:11:55.213Z,21.50
2017-08-01T23:14:23.487Z,21.50
2017-08-01T23:16:52.382Z,21.50
2017-08-01T23:19:21.277Z,21.50
2017-08-01T23:21:49.445Z,21.50
2017-08-01T23:24:17.574Z,21.40
2017-08-01T23:26:45.746Z,21.40
2017-08-01T23:29:13.887Z,21.40
2017-08-01T23:31:42.165Z,21.40
2017-08-01T23:34:10.302Z,21.40
2017-08-01T23:36:38.583Z,21.30
2017-08-01T23:39:06.751Z,21.30
2017-08-01T23:41:34.908Z,21.30
2017-08-01T23:44:03.863Z,21.20
2017-08-01T23:46:31.989Z,21.20
2017-08-01T23:49:00.130Z,21.30
2017-08-01T23:51:28.299Z,21.30
2017-08-01T23:53:56.439Z,21.30
2017-08-01T23:56:24.599Z,21.30
2017-08-01T23:58:52.753Z,21.30
